aviador You're here:

CWHN Decoded Metar

JIMMY LAKE in SK, CANADA
Report Time2018-06-25 11:19:00
UTC Time2018-06-25 11:46:33
Flight Rules lifr LIFR
Wind080° at 02 kt
W.Rank080° ranks 32
Current wind is below 080° avg. (5.5)
Visibility201 m
Phenomena:N/A
Clouds:N/A
Expected CloudBase > 1,600 ft AGL from Temp-Dew spread
CeilingNone
Temp15°C (ISA +4)
Dew Point11°C (77% RH)
AAT14.6°C
QNH1009 hPa
Density Alt2,894 ft
Elevation2,087 ft
Report Wrong Elevation
Raw Report
SPECI CWHN 251119Z AUTO 08002KT 1/8SM CLR 15/11 A2981=

Extra information for CWHN:More info

Metar Taf Metar & Taf Last 4 Metars F.Rules Stats Wind Profile Meteogram Temp Stats Airport Information Weather charts Add Link Nearby VenuesMetar ALERT Operation Metar Decoded Social comments